Welcome!

Visit our other weather sites:

Template documentation
and downloads

And another site



There are no active watches, warnings or advisories

Nearby METAR Reports

   
KAVP - Albrightsville, PA
Updated: Dec 3 2020 12:54 pm
Clear  
Clear  
   Wind: SW 11.5 mph<br />Gust to 11.5 mph
Wind: SW 11.5 mph
Gust to 11.5 mph
Temperature: 46.4°F
Wind Chill: 41°F
Dew Point: 19.4°F
Humidity: 34%
Barometer: 30.12 inHg
Clouds: Clear
Visibility: 10 mi
Cloud details: Clear
KAVP 031854Z 23010G16KT 10SM CLR 08/M07 A3012 RMK AO2 SLP203 T00781067
KIWA - Apache Junction, AZ
Updated: Dec 3 2020 11:47 am
NOT Current
Clear  
Clear  
   Wind: NNE 16.1 mph
Wind: NNE 16.1 mph
Temperature: 59°F
Dew Point: 12.2°F
Humidity: 16%
Barometer: 30.32 inHg
Clouds: Clear
Visibility: 10 mi
Cloud details: Clear
KIWA 031747Z 03014KT 10SM SKC 15/M11 A3032
KPKB - Blue Rock, OH
Updated: Dec 3 2020 12:53 pm
Clear  
Clear  
   Wind: SSE 5.8 mph
Wind: SSE 5.8 mph
Temperature: 37.4°F
Wind Chill: 33.8°F
Dew Point: 28.4°F
Humidity: 70%
Barometer: 30.23 inHg
Clouds: Clear
Visibility: 10 mi
Cloud details: Clear
KPKB 031853Z 16005KT 10SM CLR 03/M02 A3023 RMK AO2 SLP245 T00331022
KHVN - Branford, CT
Updated: Dec 3 2020 12:53 pm
Clear  
Clear  
   Wind: SW 13.8 mph<br />Gust to 13.8 mph
Wind: SW 13.8 mph
Gust to 13.8 mph
Temperature: 48.2°F
Wind Chill: 42.8°F
Dew Point: 33.8°F
Humidity: 58%
Barometer: 30.13 inHg
Clouds: Clear
Visibility: 10 mi
Cloud details: Clear
KHVN 031853Z 23012G17KT 10SM CLR 09/01 A3013 RMK AO2 SLP202 T00890006
KPHX - Carefree, AZ
Updated: Dec 3 2020 12:51 pm
Clear  
Clear  
   Wind: ENE 12.7 mph<br />Gust to 12.7 mph
Wind: ENE 12.7 mph
Gust to 12.7 mph
Temperature: 62.6°F
Dew Point: 12.2°F
Humidity: 14%
Barometer: 30.27 inHg
Clouds: Clear
Visibility: 10 mi
Cloud details: Clear
KPHX 031851Z 07011G18KT 10SM CLR 17/M11 A3027 RMK AO2 SLP243 T01671106
 

Script developed by  Saratoga-weather.org Adapted for the template by  Weerstation Leuven